Dati Storici

Data ora Umidita' aria (%) Temperatura aria (°C) Rad globale (W/m²) Gonioanemometro (°) Tacoanemometro (m/s) Pioggia (mm)
04-07-2020 02:10 71.1 % 20.902 -77.978 0.747 0 0
04-07-2020 02:00 69.8 % 21.182 -35.796 1.904 0 0
04-07-2020 01:50 68 % 21.507 -33.497 1.069 0 0
04-07-2020 01:40 67 % 21.612 -76.681 2.484 0 0
04-07-2020 01:30 66 % 21.661 -79.623 0.989 0 0
04-07-2020 01:20 65.2 % 21.842 -75.029 1.976 0 0
04-07-2020 01:10 64.4 % 21.984 -72.916 1.985 0 0
04-07-2020 01:00 63.7 % 22.101 -77.021 2.331 0 0
04-07-2020 00:50 63.8 % 22.095 -79.371 3.766 0 0
04-07-2020 00:40 64.4 % 21.944 -77.386 1.816 0 0
04-07-2020 00:30 65 % 21.846 -77.508 2.68 0 0
04-07-2020 00:20 65.6 % 21.831 -72.605 1.412 0 0
04-07-2020 00:10 67 % 21.599 -77.657 2.107 0 0
04-07-2020 00:00 68.4 % 21.539 -72.672 2.002 0 0
03-07-2020 23:50 69.8 % 21.615 -76.66 2.835 0 0
03-07-2020 23:40 70.4 % 21.675 -33.977 1.203 0 0
03-07-2020 23:30 69.1 % 21.756 -75.138 0.586 0 0
03-07-2020 23:20 67.3 % 21.921 -65.279 1.111 0 0
03-07-2020 23:10 66.8 % 22.048 -76.161 1.435 0 0
03-07-2020 23:00 66.1 % 22.118 -76.836 2.234 0 0

I dati sono presentati in modo automatico a scopo informativo. In seguito a verifica i dati possono subire modifiche o essere invalidati e non riportati negli archivi definitivi.